KORD/ORD METAR and TAF weather

Enter ICAO airport designator
Station Type Date Time Source
KORD METAR 2020/01/23 15:10 UTC NOAA

KORD 231510Z 16007KT 1 1/2SM -SN BR BKN009 OVC017 M01/M02 A3006 RMK AO2 P0001 T10061017


Station Type Date Time Source
KORD Decoded METAR 2020/01/23 15:10 UTC NOAA

CHICAGO O'HARE INTERNATIONAL, IL, United States (KORD) 41-59N 087-55W 200M
Jan 23, 2020 - 10:10 AM EST / 2020.01.23 1510 UTC
Wind: from the SSE (160 degrees) at 8 MPH (7 KT):0
Visibility: 1 1/2 mile(s):0
Sky conditions: overcast
Weather: light snow; mist
Precipitation last hour: 0.01 inches
Temperature: 30.9 F (-0.6 C)
Windchill: 23 F (-5 C):1
Dew Point: 28.9 F (-1.7 C)
Relative Humidity: 92%
Pressure (altimeter): 30.06 in. Hg (1017 hPa)
ob: KORD 231510Z 16007KT 1 1/2SM -SN BR BKN009 OVC017 M01/M02 A3006 RMK AO2 P0001 T10061017
cycle: 15

Station Type Date Time Source
KORD TAF 2020/01/23 15:06 UTC NOAA

TAF
AMD KORD 231503Z 2315/2418 17008KT 1 1/2SM -SN BR OVC009
FM231700 16008KT 3SM -SN BR OVC006
FM232300 14007KT 2SM -SNDZ BR OVC007
TEMPO 2323/2403 1SM BR OVC004
FM240600 08010KT 1SM -SNRA BR OVC006
FM241100 07010KT 2SM -SNRA BR OVC004

Example: see airport list